Time;durP1;ratioP1;P1;durP2;ratioP2;P2;SDS_P1;SDS_P2;PMS_P1;PMS_P2;Temp;Humidity;BMP_temperature;BMP_pressure;BME280_temperature;BME280_humidity;BME280_pressure;Samples;Min_cycle;Max_cycle;Signal;HPM_P1;HPM_P2
2023/02/15 00:00:11;;;;;;;19.33;12.38;;;;;;;7.32;37.21;102543.59;4913007;29;20043;-82
2023/02/15 00:02:39;;;;;;;19.85;12.40;;;;;;;7.28;37.49;102543.78;4925629;29;20044;-81
2023/02/15 00:05:08;;;;;;;19.77;12.32;;;;;;;7.26;37.41;102540.28;4897845;29;20047;-81
2023/02/15 00:07:36;;;;;;;20.15;12.60;;;;;;;7.23;37.34;102535.84;4916716;29;20513;-81
2023/02/15 00:10:05;;;;;;;19.02;11.60;;;;;;;7.22;37.51;102534.09;4915829;29;20814;-81
2023/02/15 00:12:33;;;;;;;17.85;12.05;;;;;;;7.19;37.40;102532.38;4921043;29;20055;-80
2023/02/15 00:15:01;;;;;;;17.17;11.70;;;;;;;7.17;37.68;102530.72;4933954;29;20050;-81
2023/02/15 00:17:30;;;;;;;19.92;12.80;;;;;;;7.18;37.25;102540.66;4918338;29;20047;-81
2023/02/15 00:19:58;;;;;;;20.83;12.63;;;;;;;7.15;37.49;102535.34;4927719;29;20495;-82
2023/02/15 00:22:26;;;;;;;20.33;12.40;;;;;;;7.13;37.36;102529.06;4932464;29;20086;-82
2023/02/15 00:24:54;;;;;;;18.85;11.82;;;;;;;7.12;37.25;102530.03;4925682;29;20092;-82
2023/02/15 00:27:22;;;;;;;20.67;12.90;;;;;;;7.10;37.89;102526.50;4916201;29;20056;-82
2023/02/15 00:29:50;;;;;;;20.60;12.43;;;;;;;7.08;37.41;102517.53;4933632;29;20050;-82
2023/02/15 00:32:18;;;;;;;20.88;13.10;;;;;;;7.07;37.53;102522.09;4932969;29;20044;-82
2023/02/15 00:34:50;;;;;;;19.98;12.18;;;;;;;7.07;38.00;102523.91;4909353;29;20044;-82
2023/02/15 00:37:18;;;;;;;19.30;11.93;;;;;;;7.03;37.44;102520.44;4910865;29;20051;-82
2023/02/15 00:39:47;;;;;;;22.40;13.82;;;;;;;6.99;37.72;102518.84;4919464;29;20059;-82
2023/02/15 00:42:15;;;;;;;21.58;13.63;;;;;;;6.97;37.53;102512.56;4921002;29;20375;-81
2023/02/15 00:44:45;;;;;;;20.52;12.48;;;;;;;6.97;37.66;102515.28;4936321;29;20055;-81
2023/02/15 00:47:13;;;;;;;20.02;12.60;;;;;;;6.92;37.53;102520.06;4936652;29;21269;-80
2023/02/15 00:49:41;;;;;;;21.38;13.32;;;;;;;6.92;37.73;102521.91;4932722;29;20044;-81
2023/02/15 00:52:12;;;;;;;20.10;12.75;;;;;;;6.90;37.51;102518.38;4935678;29;20396;-81
2023/02/15 00:54:40;;;;;;;22.30;13.30;;;;;;;6.86;37.65;102516.75;4917869;29;20110;-82
2023/02/15 00:57:08;;;;;;;21.17;13.00;;;;;;;6.84;37.73;102515.94;4918083;29;20044;-82
2023/02/15 00:59:36;;;;;;;22.60;12.68;;;;;;;6.80;37.76;102518.78;4931252;29;20084;-81
2023/02/15 01:02:04;;;;;;;18.90;12.80;;;;;;;6.78;37.78;102514.34;4915777;29;20039;-82
2023/02/15 01:04:32;;;;;;;21.33;13.35;;;;;;;6.77;37.83;102509.91;4930852;29;20067;-81
2023/02/15 01:07:01;;;;;;;20.13;13.00;;;;;;;6.75;37.85;102509.06;4908492;29;20043;-82
2023/02/15 01:09:31;;;;;;;18.95;12.07;;;;;;;6.74;37.75;102505.47;4936232;29;20538;-82
2023/02/15 01:11:58;;;;;;;20.15;12.55;;;;;;;6.70;37.87;102506.50;4911733;29;20471;-81
2023/02/15 01:14:27;;;;;;;19.63;12.70;;;;;;;6.69;37.93;102509.31;4913908;29;20085;-82
2023/02/15 01:16:55;;;;;;;19.27;12.20;;;;;;;6.66;37.87;102509.44;4936439;29;20206;-81
2023/02/15 01:19:23;;;;;;;22.00;13.27;;;;;;;6.63;37.57;102507.75;4933877;29;20064;-81
2023/02/15 01:21:50;;;;;;;21.08;12.35;;;;;;;6.62;37.90;102508.69;4936856;29;20072;-81
2023/02/15 01:24:18;;;;;;;21.83;12.85;;;;;;;6.60;37.99;102510.63;4930935;29;20094;-80
2023/02/15 01:26:48;;;;;;;20.83;12.55;;;;;;;6.59;37.81;102506.13;4954544;29;20039;-81
2023/02/15 01:29:16;;;;;;;18.88;12.50;;;;;;;6.56;37.95;102506.25;4917148;29;20052;-81
2023/02/15 01:31:44;;;;;;;21.77;12.70;;;;;;;6.53;38.16;102500.09;4930844;29;20055;-80
2023/02/15 01:34:14;;;;;;;19.95;12.20;;;;;;;6.50;37.95;102503.81;4918260;29;20416;-82
2023/02/15 01:36:42;;;;;;;20.58;12.25;;;;;;;6.49;38.06;102504.75;4929455;29;20562;-82
2023/02/15 01:39:10;;;;;;;21.05;13.05;;;;;;;6.48;38.15;102507.53;4955472;23;20050;-78
2023/02/15 01:41:38;;;;;;;22.83;13.80;;;;;;;6.44;38.14;102504.09;4957539;28;20038;-78
2023/02/15 01:44:35;;;;;;;21.05;13.20;;;;;;;6.42;38.46;102496.00;4938112;29;20126;-77
2023/02/15 01:47:05;;;;;;;20.33;12.75;;;;;;;6.38;38.32;102491.63;4962670;28;20057;-78
2023/02/15 01:49:33;;;;;;;22.40;13.73;;;;;;;6.36;38.31;102485.41;4952467;28;20071;-77
2023/02/15 01:52:01;;;;;;;20.40;13.10;;;;;;;6.35;38.22;102493.63;4930837;29;20074;-78
2023/02/15 01:54:33;;;;;;;20.38;13.30;;;;;;;6.34;38.30;102486.41;4943039;28;20059;-78
2023/02/15 01:57:09;;;;;;;23.15;12.77;;;;;;;6.34;38.32;102494.56;4922262;29;20043;-77
2023/02/15 01:59:40;;;;;;;21.67;12.40;;;;;;;6.31;38.26;102484.69;4922082;29;20467;-77
2023/02/15 02:02:12;;;;;;;22.35;12.90;;;;;;;6.32;38.64;102489.19;4923023;29;20051;-77
2023/02/15 02:04:45;;;;;;;20.88;13.23;;;;;;;6.28;38.43;102479.38;4936011;29;20042;-77
2023/02/15 02:07:15;;;;;;;20.90;13.18;;;;;;;6.28;38.57;102476.66;4924510;29;20261;-76
2023/02/15 02:09:43;;;;;;;19.65;12.35;;;;;;;6.29;38.35;102473.00;4935621;29;20044;-77
2023/02/15 02:12:11;;;;;;;19.55;12.25;;;;;;;6.29;38.11;102466.66;4928297;29;20051;-78
2023/02/15 02:14:40;;;;;;;19.63;12.77;;;;;;;6.29;38.31;102470.28;4924778;29;20047;-78
2023/02/15 02:17:17;;;;;;;21.85;13.05;;;;;;;6.30;38.58;102465.72;4928954;29;20071;-77
2023/02/15 02:20:20;;;;;;;19.73;12.70;;;;;;;6.28;38.71;102465.78;4929563;29;20502;-78
2023/02/15 02:23:08;;;;;;;21.20;12.50;;;;;;;6.24;38.71;102460.56;4903015;29;20047;-78
2023/02/15 02:26:17;;;;;;;19.52;12.50;;;;;;;6.22;38.70;102451.59;4929951;29;20075;-79
2023/02/15 02:29:17;;;;;;;21.52;13.27;;;;;;;6.16;38.96;102454.59;4943823;28;20062;-77
2023/02/15 02:32:05;;;;;;;21.70;13.25;;;;;;;6.15;38.72;102450.97;4926250;28;20411;-78
2023/02/15 02:34:41;;;;;;;21.45;12.65;;;;;;;6.12;38.38;102448.38;4944162;29;20411;-77
2023/02/15 02:37:19;;;;;;;19.85;12.73;;;;;;;6.09;38.50;102445.81;4934083;29;20486;-77
2023/02/15 02:39:55;;;;;;;21.65;12.90;;;;;;;6.06;38.55;102441.38;4948015;29;20126;-77
2023/02/15 02:42:30;;;;;;;21.65;13.50;;;;;;;6.04;38.65;102440.56;4934490;29;20044;-77
2023/02/15 02:45:04;;;;;;;21.70;13.23;;;;;;;6.02;38.51;102433.44;4926952;29;20134;-78
2023/02/15 02:47:37;;;;;;;21.38;13.30;;;;;;;6.00;38.81;102432.63;4928410;29;20490;-77
2023/02/15 02:50:08;;;;;;;21.60;13.35;;;;;;;5.97;38.68;102430.91;4946990;29;20132;-77
2023/02/15 02:52:40;;;;;;;20.52;12.35;;;;;;;5.96;38.63;102429.16;4931563;29;20043;-77
2023/02/15 02:55:13;;;;;;;22.02;13.25;;;;;;;5.94;38.77;102422.91;4943559;29;20143;-77
2023/02/15 02:57:48;;;;;;;22.85;13.48;;;;;;;5.92;38.61;102422.09;4934104;29;20104;-78
2023/02/15 03:00:19;;;;;;;21.35;12.20;;;;;;;5.90;38.66;102420.38;4951183;29;20378;-78
2023/02/15 03:02:53;;;;;;;21.92;13.93;;;;;;;5.89;38.68;102407.75;4929107;29;20114;-78
2023/02/15 03:05:28;;;;;;;20.95;13.32;;;;;;;5.89;38.97;102415.91;4934481;29;20117;-78
2023/02/15 03:07:57;;;;;;;22.33;12.68;;;;;;;5.85;38.74;102412.44;4932416;29;20107;-78
2023/02/15 03:10:27;;;;;;;21.63;13.63;;;;;;;5.85;38.83;102414.28;4931883;29;20060;-78
2023/02/15 03:12:54;;;;;;;20.20;12.95;;;;;;;5.83;38.70;102410.72;4949000;29;20054;-78
2023/02/15 03:15:25;;;;;;;22.67;14.05;;;;;;;5.81;38.70;102410.78;4944599;29;20039;-78
2023/02/15 03:17:57;;;;;;;20.27;13.32;;;;;;;5.80;38.77;102408.13;4929025;29;20050;-78
2023/02/15 03:20:31;;;;;;;23.33;13.88;;;;;;;5.78;38.68;102401.91;4945919;29;20488;-79
2023/02/15 03:23:05;;;;;;;22.05;13.27;;;;;;;5.75;38.80;102404.75;4935688;29;20039;-78
2023/02/15 03:25:35;;;;;;;21.88;12.77;;;;;;;5.72;38.70;102404.88;4948963;29;20082;-78
2023/02/15 03:28:07;;;;;;;22.45;13.00;;;;;;;5.71;39.00;102401.25;4937432;29;20561;-78
2023/02/15 03:30:37;;;;;;;21.20;12.95;;;;;;;5.66;38.76;102397.88;4923804;29;20035;-77
2023/02/15 03:33:06;;;;;;;22.30;13.75;;;;;;;5.63;39.00;102398.00;4946891;29;20058;-77
2023/02/15 03:35:44;;;;;;;19.00;11.85;;;;;;;5.66;39.08;102400.59;4946553;29;20130;-78
2023/02/15 03:38:18;;;;;;;19.75;11.85;;;;;;;5.64;38.97;102402.47;4928579;29;20487;-78
2023/02/15 03:43:44;;;;;;;20.75;11.77;;;;;;;5.62;39.17;102396.25;4943224;28;20070;-77
2023/02/15 03:46:17;;;;;;;23.63;12.90;;;;;;;5.60;39.10;102400.84;4935233;29;20142;-77
2023/02/15 03:48:53;;;;;;;20.40;12.43;;;;;;;5.62;38.95;102404.41;4951451;29;20146;-78
2023/02/15 03:51:37;;;;;;;21.40;12.80;;;;;;;5.61;38.86;102399.91;4947220;29;20047;-77
2023/02/15 03:54:09;;;;;;;22.10;12.30;;;;;;;5.60;39.02;102401.75;4933998;29;20047;-76
2023/02/15 03:56:39;;;;;;;20.58;12.07;;;;;;;5.60;39.08;102399.03;4952483;29;20039;-77
2023/02/15 04:02:07;;;;;;;22.23;12.55;;;;;;;5.60;39.44;102390.00;4920643;29;20039;-77
2023/02/15 04:04:37;;;;;;;21.50;12.95;;;;;;;5.56;39.24;102391.06;4930937;29;20055;-77
2023/02/15 04:07:08;;;;;;;21.40;13.18;;;;;;;5.58;39.06;102389.16;4952017;29;20417;-77
2023/02/15 04:12:22;;;;;;;20.38;11.68;;;;;;;5.53;38.91;102392.09;4950724;29;20043;-77
2023/02/15 04:17:36;;;;;;;20.25;12.25;;;;;;;5.52;38.78;102394.88;4928866;29;20055;-78
2023/02/15 04:25:37;;;;;;;21.25;13.55;;;;;;;5.45;39.02;102396.06;4936263;29;20047;-77
2023/02/15 04:28:07;;;;;;;22.35;13.90;;;;;;;5.44;39.24;102399.72;4944718;28;20102;-77
2023/02/15 04:30:35;;;;;;;19.45;12.32;;;;;;;5.41;39.14;102392.59;4935245;29;20074;-77
2023/02/15 04:33:03;;;;;;;18.60;12.23;;;;;;;5.40;39.24;102395.38;4933287;29;20048;-78
2023/02/15 04:35:31;;;;;;;24.27;12.63;;;;;;;5.37;39.10;102393.69;4936790;29;20083;-78
2023/02/15 04:38:00;;;;;;;20.02;11.95;;;;;;;5.34;39.20;102393.78;4937224;29;20047;-77
2023/02/15 04:40:29;;;;;;;21.35;12.85;;;;;;;5.33;39.13;102394.75;4935473;29;20473;-77
2023/02/15 04:42:57;;;;;;;20.48;12.95;;;;;;;5.30;39.14;102384.88;4936665;29;20043;-77
2023/02/15 04:45:24;;;;;;;23.15;13.10;;;;;;;5.28;38.99;102383.19;4937682;29;20828;-78
2023/02/15 04:47:52;;;;;;;19.80;11.82;;;;;;;5.26;39.31;102379.66;4949725;29;20043;-79
2023/02/15 04:50:20;;;;;;;21.55;13.30;;;;;;;5.24;38.93;102384.25;4938467;29;20047;-76
2023/02/15 04:52:48;;;;;;;23.02;13.30;;;;;;;5.22;39.35;102375.28;4936779;29;20043;-76
2023/02/15 04:55:17;;;;;;;23.27;13.70;;;;;;;5.20;39.27;102371.78;4951752;28;20066;-79
2023/02/15 04:57:45;;;;;;;22.63;13.55;;;;;;;5.16;39.18;102370.97;4951694;29;20064;-76
2023/02/15 05:00:13;;;;;;;22.60;13.90;;;;;;;5.14;39.22;102375.56;4929151;29;20048;-79
2023/02/15 05:02:41;;;;;;;21.63;13.25;;;;;;;5.11;39.25;102381.13;4932524;29;20728;-78
2023/02/15 05:05:12;;;;;;;22.45;14.85;;;;;;;5.07;39.26;102381.31;4948135;29;20220;-78
2023/02/15 05:07:40;;;;;;;20.02;12.60;;;;;;;5.05;39.33;102381.38;4934894;29;20047;-78
2023/02/15 05:10:09;;;;;;;22.02;12.68;;;;;;;5.04;39.49;102385.06;4935096;29;20062;-77
2023/02/15 05:12:38;;;;;;;21.23;12.45;;;;;;;5.04;39.63;102384.16;4934613;29;20139;-78
2023/02/15 05:15:06;;;;;;;24.25;12.82;;;;;;;5.01;39.48;102374.31;4953733;29;20146;-77
2023/02/15 05:17:34;;;;;;;21.55;12.93;;;;;;;4.98;39.45;102369.00;4952611;29;20047;-78
2023/02/15 05:20:02;;;;;;;21.10;13.02;;;;;;;4.97;39.54;102367.22;4938038;29;20414;-78
2023/02/15 05:22:30;;;;;;;24.40;14.30;;;;;;;4.96;39.52;102361.88;4952207;29;20079;-78
2023/02/15 05:30:32;;;;;;;22.80;12.50;;;;;;;4.89;39.55;102366.66;4910891;29;20055;-79
2023/02/15 05:33:00;;;;;;;19.17;11.82;;;;;;;4.90;39.63;102357.56;4939892;29;20565;-77
2023/02/15 05:35:27;;;;;;;21.13;12.88;;;;;;;4.88;39.65;102357.63;4937295;29;20051;-76
2023/02/15 05:37:55;;;;;;;21.65;12.75;;;;;;;4.88;39.59;102356.78;4927692;29;20042;-79
2023/02/15 05:40:23;;;;;;;21.60;13.02;;;;;;;4.86;39.58;102356.81;4928185;29;20059;-78
2023/02/15 05:42:52;;;;;;;22.75;12.63;;;;;;;4.88;39.77;102360.34;4957383;28;20177;-76
2023/02/15 05:45:20;;;;;;;19.60;12.52;;;;;;;4.85;39.65;102355.06;4939837;29;20058;-79
2023/02/15 05:47:48;;;;;;;19.05;11.60;;;;;;;4.86;39.83;102353.22;4936922;29;20509;-78
2023/02/15 05:50:16;;;;;;;19.00;12.05;;;;;;;4.87;39.73;102352.28;4941711;29;20046;-77
2023/02/15 05:52:46;;;;;;;21.45;12.35;;;;;;;4.87;39.79;102355.00;4940794;29;20139;-78
2023/02/15 05:55:14;;;;;;;20.85;12.27;;;;;;;4.87;39.63;102355.88;4941292;29;20123;-78
2023/02/15 05:57:41;;;;;;;20.77;13.02;;;;;;;4.88;39.75;102351.34;4952060;29;20054;-76
2023/02/15 06:00:13;;;;;;;22.85;13.10;;;;;;;4.89;39.91;102343.13;4944037;29;20522;-78
2023/02/15 06:02:41;;;;;;;22.27;12.60;;;;;;;4.88;39.86;102340.50;4957955;29;20131;-80
2023/02/15 06:05:09;;;;;;;20.45;12.68;;;;;;;4.88;39.65;102351.34;4956942;28;20040;-78
2023/02/15 06:07:37;;;;;;;20.63;12.18;;;;;;;4.86;39.60;102358.66;4946072;29;20134;-78
2023/02/15 06:10:07;;;;;;;21.38;11.88;;;;;;;4.86;39.60;102353.22;4933626;29;20084;-79
2023/02/15 06:12:34;;;;;;;20.88;12.30;;;;;;;4.84;39.65;102350.56;4958728;28;20138;-78
2023/02/15 06:15:03;;;;;;;20.85;12.38;;;;;;;4.84;39.52;102355.09;4937349;29;20047;-77
2023/02/15 06:17:32;;;;;;;19.05;11.23;;;;;;;4.86;39.73;102361.38;4932389;29;20521;-78
2023/02/15 06:20:00;;;;;;;19.25;12.23;;;;;;;4.83;40.06;102365.06;4938806;29;20058;-78
2023/02/15 06:22:28;;;;;;;20.35;12.18;;;;;;;4.83;39.81;102370.50;4940496;29;20076;-78
2023/02/15 06:24:55;;;;;;;20.13;12.00;;;;;;;4.84;39.88;102364.13;4929029;29;20090;-78
2023/02/15 06:27:23;;;;;;;20.73;12.38;;;;;;;4.86;39.88;102366.78;4922289;29;20243;-78
2023/02/15 06:29:51;;;;;;;18.67;11.75;;;;;;;4.86;39.92;102373.09;4927694;29;20047;-78
2023/02/15 06:32:19;;;;;;;22.80;12.43;;;;;;;4.88;39.95;102373.03;4936715;29;20036;-78
2023/02/15 06:34:48;;;;;;;19.27;11.45;;;;;;;4.89;39.87;102369.34;4928426;29;20249;-79
2023/02/15 06:37:16;;;;;;;18.88;11.57;;;;;;;4.88;39.83;102370.34;4943732;29;20075;-79
2023/02/15 06:39:44;;;;;;;21.00;12.25;;;;;;;4.90;39.88;102373.84;4946051;28;20032;-78
2023/02/15 06:42:12;;;;;;;20.58;11.73;;;;;;;4.92;40.01;102374.69;4942856;29;20047;-78
2023/02/15 06:44:40;;;;;;;19.70;12.18;;;;;;;4.91;39.73;102367.47;4916361;29;20091;-78
2023/02/15 06:47:08;;;;;;;20.50;12.18;;;;;;;4.93;39.74;102368.31;4922873;29;20058;-79
2023/02/15 06:49:36;;;;;;;21.80;11.68;;;;;;;4.92;39.77;102369.25;4937620;29;20047;-78
2023/02/15 06:52:05;;;;;;;18.02;11.30;;;;;;;4.93;39.86;102371.91;4947652;29;20530;-78
2023/02/15 06:54:33;;;;;;;19.27;11.32;;;;;;;4.92;39.73;102369.25;4924288;29;20170;-77
2023/02/15 06:57:01;;;;;;;21.35;11.60;;;;;;;4.91;39.72;102368.38;4928677;29;20044;-78
2023/02/15 06:59:28;;;;;;;20.92;12.07;;;;;;;4.90;39.86;102365.72;4939178;29;20048;-78
2023/02/15 07:01:56;;;;;;;22.73;11.90;;;;;;;4.90;39.76;102358.44;4949962;29;20058;-78
2023/02/15 07:04:24;;;;;;;19.55;11.77;;;;;;;4.88;39.69;102365.75;4922352;29;20107;-78
2023/02/15 07:06:52;;;;;;;18.15;11.45;;;;;;;4.88;39.34;102359.47;4916962;29;20055;-78
2023/02/15 07:09:22;;;;;;;19.40;12.10;;;;;;;4.89;39.73;102355.78;4939127;29;20035;-78
2023/02/15 07:14:36;;;;;;;19.60;11.02;;;;;;;4.82;39.75;102362.41;4923464;29;20138;-79
2023/02/15 07:17:04;;;;;;;20.23;11.65;;;;;;;4.80;39.78;102362.47;4929851;29;20044;-78
2023/02/15 07:19:35;;;;;;;21.40;11.50;;;;;;;4.81;39.84;102363.34;4944034;29;20051;-79
2023/02/15 07:22:04;;;;;;;21.15;11.63;;;;;;;4.81;40.05;102353.41;4938780;29;20040;-79
2023/02/15 07:24:34;;;;;;;16.85;10.63;;;;;;;4.86;40.41;102361.38;4930604;29;20051;-79
2023/02/15 07:27:01;;;;;;;18.92;11.35;;;;;;;4.90;40.80;102353.03;4941915;29;20055;-79
2023/02/15 07:29:29;;;;;;;19.27;11.65;;;;;;;4.96;40.72;102351.03;4950550;28;20039;-78
2023/02/15 07:31:57;;;;;;;21.23;11.05;;;;;;;5.05;40.77;102346.09;4939542;29;20086;-78
2023/02/15 07:34:25;;;;;;;17.73;10.43;;;;;;;5.14;40.73;102351.16;4934466;29;20051;-77
2023/02/15 07:36:53;;;;;;;18.48;10.50;;;;;;;5.24;40.58;102343.53;4956622;29;20115;-80
2023/02/15 07:39:21;;;;;;;18.58;11.77;;;;;;;5.31;40.36;102336.91;4937671;29;20119;-77
2023/02/15 07:41:50;;;;;;;19.48;11.18;;;;;;;5.41;40.25;102331.97;4974518;23;20039;-83
2023/02/15 07:44:19;;;;;;;18.90;11.73;;;;;;;5.45;39.89;102334.50;4936500;29;20497;-81
2023/02/15 07:46:46;;;;;;;17.73;10.77;;;;;;;5.48;39.81;102319.91;4934838;29;20047;-82
2023/02/15 07:49:15;;;;;;;18.52;11.48;;;;;;;5.52;39.85;102321.53;4951525;29;20047;-82
2023/02/15 07:51:43;;;;;;;18.65;11.25;;;;;;;5.52;39.86;102314.28;4936910;29;20507;-82
2023/02/15 07:54:11;;;;;;;17.63;11.18;;;;;;;5.53;39.64;102315.16;4938784;29;20042;-82
2023/02/15 07:56:39;;;;;;;18.58;11.07;;;;;;;5.55;39.63;102321.38;4935534;29;20075;-82
2023/02/15 07:59:09;;;;;;;20.42;11.52;;;;;;;5.56;39.44;102315.00;4908389;29;20166;-81
2023/02/15 08:01:39;;;;;;;17.00;10.20;;;;;;;5.57;39.49;102311.34;4929782;29;20052;-81
2023/02/15 08:04:09;;;;;;;16.02;9.80;;;;;;;5.57;39.52;102314.06;4931401;29;20071;-81
2023/02/15 08:06:38;;;;;;;19.42;10.82;;;;;;;5.58;39.56;102315.84;4929640;29;20061;-82
2023/02/15 08:09:08;;;;;;;20.05;10.95;;;;;;;5.59;39.36;102304.91;4928441;29;20033;-82
2023/02/15 08:11:39;;;;;;;18.42;10.50;;;;;;;5.60;39.41;102300.38;4931110;29;20078;-83
2023/02/15 08:14:10;;;;;;;17.02;10.68;;;;;;;5.62;39.50;102312.06;4926613;29;20056;-82
2023/02/15 08:16:41;;;;;;;18.88;11.00;;;;;;;5.63;39.38;102305.66;4933253;29;20056;-81
2023/02/15 08:19:12;;;;;;;16.90;10.55;;;;;;;5.64;39.20;102299.25;4933996;29;20063;-82
2023/02/15 08:21:42;;;;;;;17.17;10.57;;;;;;;5.65;39.14;102303.75;4935184;28;20036;-82
2023/02/15 08:24:12;;;;;;;17.30;10.77;;;;;;;5.64;39.54;102302.88;4929203;29;20131;-82
2023/02/15 08:26:41;;;;;;;17.77;11.45;;;;;;;5.64;39.20;102294.72;4939649;29;20047;-82
2023/02/15 08:29:10;;;;;;;16.27;10.45;;;;;;;5.63;39.20;102301.09;4928540;29;20048;-83
2023/02/15 08:31:40;;;;;;;19.35;10.75;;;;;;;5.61;38.98;102297.59;4913722;29;20048;-82
2023/02/15 08:34:10;;;;;;;17.02;10.50;;;;;;;5.62;38.98;102295.75;4931934;29;20107;-82
2023/02/15 08:36:38;;;;;;;15.40;9.80;;;;;;;5.60;39.15;102295.81;4931595;29;20032;-82
2023/02/15 08:39:07;;;;;;;16.02;10.13;;;;;;;5.60;39.08;102293.09;4931400;29;20047;-82
2023/02/15 08:41:37;;;;;;;17.52;10.32;;;;;;;5.59;38.96;102291.34;4923358;29;20040;-82
2023/02/15 08:44:07;;;;;;;15.85;10.32;;;;;;;5.58;39.04;102291.41;4914477;29;20047;-81
2023/02/15 08:46:39;;;;;;;16.90;10.50;;;;;;;5.57;39.16;102287.78;4933975;29;20083;-82
2023/02/15 08:49:07;;;;;;;17.15;9.90;;;;;;;5.56;39.29;102285.16;4929815;29;20095;-82
2023/02/15 08:51:37;;;;;;;15.70;9.43;;;;;;;5.56;39.31;102286.03;4929045;29;20040;-82
2023/02/15 08:54:08;;;;;;;15.32;10.02;;;;;;;5.58;39.40;102286.84;4911708;29;20131;-83
2023/02/15 08:56:39;;;;;;;18.05;11.25;;;;;;;5.59;39.54;102285.91;4912064;29;20402;-82
2023/02/15 08:59:12;;;;;;;16.73;10.00;;;;;;;5.62;39.51;102288.47;4921644;29;20091;-82
2023/02/15 09:01:41;;;;;;;;;;;;;;;5.42;40.06;102298.44;4930808;29;20117;-81
2023/02/15 09:04:09;;;;;;;17.02;8.77;;;;;;;5.66;40.08;102281.06;4933243;29;20000;-81
2023/02/15 09:06:39;;;;;;;14.52;9.35;;;;;;;5.78;39.57;102285.97;4911552;29;20122;-82
2023/02/15 09:09:07;;;;;;;15.85;9.05;;;;;;;5.86;39.77;102285.63;4911760;29;20456;-80
2023/02/15 09:11:37;;;;;;;15.45;9.07;;;;;;;5.95;39.90;102279.78;4930203;29;20035;-81
2023/02/15 09:14:08;;;;;;;15.85;9.57;;;;;;;6.05;40.01;102275.66;4907068;29;20086;-80
2023/02/15 09:16:38;;;;;;;14.38;9.20;;;;;;;6.13;40.11;102281.63;4935292;29;20053;-80
2023/02/15 09:19:08;;;;;;;16.08;9.85;;;;;;;6.24;39.76;102284.75;4931824;29;20082;-81
2023/02/15 09:21:37;;;;;;;15.45;9.30;;;;;;;6.35;39.94;102295.13;4918720;29;20072;-81
2023/02/15 09:24:07;;;;;;;14.50;9.10;;;;;;;6.44;39.97;102279.25;4938165;29;20411;-82
2023/02/15 09:26:40;;;;;;;13.77;9.38;;;;;;;6.57;39.48;102284.09;4919348;29;20103;-82
2023/02/15 09:29:08;;;;;;;13.80;8.65;;;;;;;6.65;39.82;102284.59;4931629;29;20048;-81
2023/02/15 09:31:41;;;;;;;14.98;9.20;;;;;;;6.77;39.34;102282.22;4928828;29;20039;-82
2023/02/15 09:34:11;;;;;;;15.40;9.30;;;;;;;6.84;39.46;102285.50;4916634;29;20091;-82
2023/02/15 09:36:40;;;;;;;15.05;9.00;;;;;;;6.96;39.40;102282.16;4927548;29;20047;-82
2023/02/15 09:39:38;;;;;;;15.95;9.32;;;;;;;7.03;38.81;102283.59;4900864;29;20174;-82
2023/02/15 09:42:31;;;;;;;14.27;9.35;;;;;;;7.17;38.53;102289.25;4931589;29;20047;-82
2023/02/15 09:45:14;;;;;;;15.23;9.40;;;;;;;7.29;38.59;102300.47;4914234;29;20076;-82
2023/02/15 09:48:02;;;;;;;16.50;9.15;;;;;;;7.39;38.60;102289.03;4914652;29;20055;-80
2023/02/15 09:50:43;;;;;;;14.15;8.65;;;;;;;7.48;38.75;102284.94;4918117;29;20074;-81
2023/02/15 09:53:47;;;;;;;13.75;9.02;;;;;;;7.56;38.24;102283.59;4908733;29;20134;-81
2023/02/15 09:56:21;;;;;;;14.57;8.73;;;;;;;7.65;38.96;102276.78;4922258;29;20080;-82
2023/02/15 09:59:00;;;;;;;15.40;9.15;;;;;;;7.78;37.91;102275.16;4923751;29;20062;-82
2023/02/15 10:01:35;;;;;;;12.60;8.63;;;;;;;7.86;38.29;102280.19;4906367;29;20055;-81
2023/02/15 10:04:17;;;;;;;13.50;9.10;;;;;;;7.93;37.84;102273.44;4935760;29;20050;-81
2023/02/15 10:07:01;;;;;;;14.23;8.45;;;;;;;8.03;38.09;102290.19;4914029;29;20129;-81
2023/02/15 10:09:56;;;;;;;15.57;9.00;;;;;;;8.08;37.30;102280.81;4915303;29;20123;-81
2023/02/15 10:12:47;;;;;;;12.75;8.80;;;;;;;8.19;37.44;102272.94;4916794;29;20085;-81
2023/02/15 10:18:39;;;;;;;13.20;8.23;;;;;;;8.36;37.10;102265.66;4925913;29;20071;-81
2023/02/15 10:21:21;;;;;;;15.15;8.65;;;;;;;8.44;37.16;102261.53;4924083;29;20115;-82
2023/02/15 10:24:10;;;;;;;14.37;9.40;;;;;;;8.48;36.77;102268.59;4936418;29;20376;-83
2023/02/15 10:26:49;;;;;;;13.80;8.85;;;;;;;8.54;36.80;102268.25;4912255;29;20299;-82
2023/02/15 10:29:30;;;;;;;12.93;8.20;;;;;;;8.58;36.51;102267.13;4912959;29;20040;-83
2023/02/15 10:32:15;;;;;;;13.65;8.38;;;;;;;8.61;36.77;102261.47;4940961;29;20166;-81
2023/02/15 10:34:51;;;;;;;13.98;9.00;;;;;;;8.66;36.42;102263.94;4928177;29;20043;-82
2023/02/15 10:37:42;;;;;;;15.35;9.38;;;;;;;8.67;36.33;102268.44;4943990;29;20054;-81
2023/02/15 10:40:23;;;;;;;12.73;8.75;;;;;;;8.71;36.82;102264.53;4913361;29;20449;-82
2023/02/15 10:43:15;;;;;;;12.48;7.97;;;;;;;8.74;36.03;102263.50;4931981;29;20047;-81
2023/02/15 10:45:53;;;;;;;12.80;8.57;;;;;;;8.79;36.27;102255.91;4927768;29;20202;-82
2023/02/15 10:48:35;;;;;;;11.90;7.93;;;;;;;8.84;36.65;102265.59;4931051;29;20096;-81
2023/02/15 10:51:08;;;;;;;12.57;7.50;;;;;;;8.84;36.96;102254.66;4936560;29;20115;-82
2023/02/15 10:54:03;;;;;;;13.57;7.57;;;;;;;8.91;36.27;102257.94;4914735;29;20047;-82
2023/02/15 10:56:39;;;;;;;11.27;7.30;;;;;;;8.99;36.58;102245.59;4928421;29;20071;-81
2023/02/15 10:59:28;;;;;;;12.00;7.97;;;;;;;9.06;36.17;102241.53;4940582;29;20525;-82
2023/02/15 11:02:02;;;;;;;13.88;8.30;;;;;;;9.12;36.79;102244.84;4927152;29;20083;-81
2023/02/15 11:04:45;;;;;;;11.85;7.30;;;;;;;9.18;36.45;102237.16;4929498;29;20142;-82
2023/02/15 11:07:19;;;;;;;13.40;8.55;;;;;;;9.23;36.47;102248.72;4939799;29;20491;-81
2023/02/15 11:09:53;;;;;;;11.77;8.23;;;;;;;9.30;36.42;102246.50;4917726;29;20056;-81
2023/02/15 11:12:28;;;;;;;11.95;8.05;;;;;;;9.38;36.20;102244.19;4904083;29;20056;-82
2023/02/15 11:15:05;;;;;;;12.10;7.75;;;;;;;9.42;36.17;102238.47;4896092;29;20103;-81
2023/02/15 11:17:39;;;;;;;13.15;8.27;;;;;;;9.48;35.92;102236.34;4919183;29;20115;-83
2023/02/15 11:20:19;;;;;;;14.18;8.63;;;;;;;9.53;35.60;102236.94;4903284;29;20040;-83
2023/02/15 11:22:50;;;;;;;13.43;7.72;;;;;;;9.55;36.01;102229.53;4903498;29;20518;-83
2023/02/15 11:25:23;;;;;;;10.90;7.55;;;;;;;9.61;36.39;102240.94;4918797;29;20123;-83
2023/02/15 11:27:54;;;;;;;11.35;7.40;;;;;;;9.63;36.05;102247.22;4937959;29;20122;-83
2023/02/15 11:30:25;;;;;;;11.57;7.25;;;;;;;9.71;36.07;102244.00;4938168;29;20561;-83
2023/02/15 11:32:57;;;;;;;12.25;7.43;;;;;;;9.77;36.26;102240.88;4915243;29;20115;-83
2023/02/15 11:35:50;;;;;;;11.57;7.82;;;;;;;9.84;36.01;102234.03;4921362;29;20509;-83
2023/02/15 11:38:25;;;;;;;11.07;7.32;;;;;;;9.91;36.27;102229.06;4934663;29;20048;-83
2023/02/15 11:40:57;;;;;;;11.27;6.55;;;;;;;9.99;36.10;102224.84;4918818;29;20079;-83
2023/02/15 11:43:37;;;;;;;12.43;7.55;;;;;;;10.08;35.57;102215.19;4906967;29;20064;-82
2023/02/15 11:46:11;;;;;;;10.25;7.13;;;;;;;10.13;36.62;102205.72;4936995;29;20153;-81
2023/02/15 11:48:42;;;;;;;12.07;7.38;;;;;;;10.20;36.20;102208.94;4906676;29;20054;-81
2023/02/15 11:51:15;;;;;;;11.05;7.47;;;;;;;10.31;35.90;102209.13;4930894;29;20048;-81
2023/02/15 11:53:45;;;;;;;11.20;7.88;;;;;;;10.37;35.97;102196.91;4901314;29;20060;-81
2023/02/15 11:56:18;;;;;;;12.23;7.85;;;;;;;10.45;35.26;102195.41;4935178;29;20039;-81
2023/02/15 11:58:52;;;;;;;11.30;7.60;;;;;;;10.51;35.25;102203.22;4892908;29;20104;-82
2023/02/15 12:01:27;;;;;;;12.20;7.88;;;;;;;10.59;35.99;102191.78;4901160;29;20072;-82
2023/02/15 12:03:59;;;;;;;12.60;7.95;;;;;;;10.66;35.78;102187.66;4931989;29;20106;-82
2023/02/15 12:06:30;;;;;;;11.68;8.05;;;;;;;10.72;35.48;102184.53;4914434;29;20047;-82
2023/02/15 12:09:06;;;;;;;10.98;7.53;;;;;;;10.78;34.68;102172.28;4918326;29;20061;-82